createdAt,value
2023-01-13T00:00:44.937Z,99203.29
2023-01-13T00:03:38.565Z,99199.84
2023-01-13T00:06:27.850Z,99195.16
2023-01-13T00:09:21.884Z,99194.11
2023-01-13T00:12:14.718Z,99191.84
2023-01-13T00:15:08.905Z,99191.30
2023-01-13T00:18:11.786Z,99198.79
2023-01-13T00:21:07.640Z,99199.18
2023-01-13T00:24:00.434Z,99196.95
2023-01-13T00:26:54.352Z,99190.89
2023-01-13T00:29:47.147Z,99186.23
2023-01-13T00:32:22.311Z,99188.03
2023-01-13T00:35:15.109Z,99188.48
2023-01-13T00:38:00.542Z,99194.81
2023-01-13T00:41:00.273Z,99197.30
2023-01-13T00:43:52.173Z,99194.78
2023-01-13T00:46:45.169Z,99188.17
2023-01-13T00:49:39.119Z,99188.14
2023-01-13T00:52:34.933Z,99189.35
2023-01-13T00:55:27.852Z,99188.14
2023-01-13T00:58:21.535Z,99186.42
2023-01-13T01:01:12.682Z,99188.04
2023-01-13T01:04:05.781Z,99183.73
2023-01-13T01:06:58.637Z,99184.63
2023-01-13T01:09:46.439Z,99177.91
2023-01-13T01:12:39.350Z,99177.98
2023-01-13T01:15:31.221Z,99179.23
2023-01-13T01:18:24.205Z,99179.34
2023-01-13T01:21:17.774Z,99184.64
2023-01-13T01:24:11.234Z,99182.48
2023-01-13T01:27:04.150Z,99181.56
2023-01-13T01:29:57.121Z,99180.45
2023-01-13T01:32:49.871Z,99179.98
2023-01-13T01:35:43.723Z,99177.42
2023-01-13T01:38:37.546Z,99177.80
2023-01-13T01:41:32.989Z,99177.64
2023-01-13T01:45:01.051Z,99178.04
2023-01-13T01:47:59.649Z,99171.69
2023-01-13T01:50:54.232Z,99171.13
2023-01-13T01:53:41.886Z,99171.42
2023-01-13T01:56:37.328Z,99164.94
2023-01-13T01:59:34.930Z,99165.39
2023-01-13T02:02:28.118Z,99158.75
2023-01-13T02:05:23.163Z,99155.55
2023-01-13T02:08:17.079Z,99146.96
2023-01-13T02:11:30.436Z,99140.95
2023-01-13T02:14:23.990Z,99132.30
2023-01-13T02:17:28.762Z,99125.92
2023-01-13T02:21:03.017Z,99124.91
2023-01-13T02:24:42.494Z,99124.80
2023-01-13T02:28:04.211Z,99120.16
2023-01-13T02:31:17.409Z,99115.20
2023-01-13T02:34:15.324Z,99117.05
2023-01-13T02:37:14.200Z,99113.85
2023-01-13T02:40:16.177Z,99109.78
2023-01-13T02:43:33.037Z,99111.88
2023-01-13T02:46:30.876Z,99112.20
2023-01-13T02:49:33.202Z,99111.95
2023-01-13T02:52:31.158Z,99106.83
2023-01-13T02:55:29.915Z,99105.86
2023-01-13T02:58:27.276Z,99106.52
2023-01-13T03:01:21.195Z,99106.21
2023-01-13T03:04:31.053Z,99108.91
2023-01-13T03:07:59.187Z,99103.11
2023-01-13T03:11:03.148Z,99100.77
2023-01-13T03:14:01.533Z,99095.41
2023-01-13T03:17:07.373Z,99091.08
2023-01-13T03:20:07.733Z,99083.91
2023-01-13T03:23:09.319Z,99082.46
2023-01-13T03:26:08.988Z,99085.24
2023-01-13T03:29:10.288Z,99084.02
2023-01-13T03:32:13.422Z,99082.49
2023-01-13T03:35:13.275Z,99080.73
2023-01-13T03:38:12.258Z,99079.28
2023-01-13T03:41:10.658Z,99080.44
2023-01-13T03:44:33.756Z,99084.11
2023-01-13T03:47:32.214Z,99083.31
2023-01-13T03:50:29.735Z,99081.50
2023-01-13T03:53:28.142Z,99080.45
2023-01-13T03:56:29.375Z,99082.03
2023-01-13T03:59:28.265Z,99083.61
2023-01-13T04:02:28.465Z,99081.16
2023-01-13T04:05:22.115Z,99076.56
2023-01-13T04:08:20.336Z,99073.85
2023-01-13T04:12:21.544Z,99075.33
2023-01-13T04:14:33.553Z,99071.15
2023-01-13T04:17:26.457Z,99067.17
2023-01-13T04:20:14.959Z,99066.87
2023-01-13T04:23:08.905Z,99071.95
2023-01-13T04:26:03.100Z,99071.50
2023-01-13T04:28:56.228Z,99075.36
2023-01-13T04:31:49.942Z,99075.02
2023-01-13T04:34:36.390Z,99074.86
2023-01-13T04:37:29.612Z,99075.23
2023-01-13T04:40:25.026Z,99078.27
2023-01-13T04:43:18.649Z,99076.45
2023-01-13T04:46:11.621Z,99072.23
2023-01-13T04:49:04.591Z,99071.29
2023-01-13T04:51:57.697Z,99067.39
2023-01-13T04:54:53.102Z,99068.45
2023-01-13T04:57:46.238Z,99067.60
2023-01-13T05:00:39.598Z,99066.71
2023-01-13T05:03:32.739Z,99068.59
2023-01-13T05:06:26.237Z,99067.05
2023-01-13T05:09:19.311Z,99059.80
2023-01-13T05:12:30.069Z,99057.25
2023-01-13T05:15:40.855Z,99056.13
2023-01-13T05:18:33.909Z,99056.32
2023-01-13T05:21:44.193Z,99059.43
2023-01-13T05:24:54.834Z,99056.45
2023-01-13T05:27:48.095Z,99046.49
2023-01-13T05:30:44.399Z,99047.69
2023-01-13T05:33:37.413Z,99050.85
2023-01-13T05:36:30.507Z,99052.48
2023-01-13T05:39:23.283Z,99052.70
2023-01-13T05:42:33.659Z,99059.75
2023-01-13T05:45:26.818Z,99058.58
2023-01-13T05:48:21.403Z,99062.05
2023-01-13T05:51:15.277Z,99060.81
2023-01-13T05:54:08.180Z,99055.02
2023-01-13T05:57:00.944Z,99056.54
2023-01-13T05:59:53.877Z,99056.37
2023-01-13T06:02:47.018Z,99059.05
2023-01-13T06:05:40.366Z,99062.04
2023-01-13T06:08:34.272Z,99062.09
2023-01-13T06:11:19.907Z,99067.14
2023-01-13T06:14:05.307Z,99062.95
2023-01-13T06:16:58.213Z,99066.92
2023-01-13T06:19:52.225Z,99066.90
2023-01-13T06:22:47.641Z,99074.18
2023-01-13T06:25:47.936Z,99080.98
2023-01-13T06:28:41.187Z,99086.93
2023-01-13T06:31:38.694Z,99081.81
2023-01-13T06:34:31.942Z,99084.67
2023-01-13T06:37:26.265Z,99083.34
2023-01-13T06:40:19.796Z,99081.65
2023-01-13T06:43:18.954Z,99081.31
2023-01-13T06:46:04.866Z,99082.70
2023-01-13T06:48:57.935Z,99089.11
2023-01-13T06:51:50.947Z,99087.90
2023-01-13T06:54:44.425Z,99087.61
2023-01-13T06:57:31.013Z,99088.25
2023-01-13T07:00:26.866Z,99091.31
2023-01-13T07:03:20.213Z,99090.73
2023-01-13T07:06:07.615Z,99088.02
2023-01-13T07:09:00.876Z,99088.57
2023-01-13T07:11:46.889Z,99090.52
2023-01-13T07:14:57.249Z,99087.89
2023-01-13T07:17:51.675Z,99080.98
2023-01-13T07:20:44.595Z,99083.30
2023-01-13T07:23:33.184Z,99086.90
2023-01-13T07:26:25.953Z,99082.67
2023-01-13T07:29:19.069Z,99081.06
2023-01-13T07:32:11.843Z,99083.43
2023-01-13T07:35:06.277Z,99084.38
2023-01-13T07:37:59.331Z,99093.48
2023-01-13T07:40:51.381Z,99098.39
2023-01-13T07:43:44.504Z,99099.86
2023-01-13T07:46:27.692Z,99102.56
2023-01-13T07:49:13.192Z,99098.52
2023-01-13T07:52:06.631Z,99092.66
2023-01-13T07:54:42.301Z,99102.98
2023-01-13T07:57:28.341Z,99102.81
2023-01-13T08:00:21.929Z,99093.90
2023-01-13T08:03:16.169Z,99093.15
2023-01-13T08:05:59.122Z,99094.64
2023-01-13T08:08:43.073Z,99095.09
2023-01-13T08:11:29.298Z,99096.61
2023-01-13T08:14:23.123Z,99094.16
2023-01-13T08:17:05.309Z,99092.96
2023-01-13T08:19:51.564Z,99091.11
2023-01-13T08:22:35.156Z,99092.92
2023-01-13T08:25:19.179Z,99098.20
2023-01-13T08:28:11.933Z,99101.05
2023-01-13T08:31:00.552Z,99098.97
2023-01-13T08:33:47.623Z,99102.11
2023-01-13T08:36:41.346Z,99107.33
2023-01-13T08:39:36.132Z,99101.39
2023-01-13T08:42:33.098Z,99112.38
2023-01-13T08:45:17.005Z,99109.60
2023-01-13T08:48:10.695Z,99111.70
2023-01-13T08:51:08.359Z,99118.84
2023-01-13T08:54:00.602Z,99115.33
2023-01-13T08:56:53.962Z,99121.92
2023-01-13T08:59:41.494Z,99123.33
2023-01-13T09:02:34.431Z,99124.34
2023-01-13T09:05:20.388Z,99118.90
2023-01-13T09:08:15.070Z,99120.77
2023-01-13T09:11:35.063Z,99118.85
2023-01-13T09:14:30.212Z,99108.91
2023-01-13T09:17:03.747Z,99114.33
2023-01-13T09:19:47.165Z,99104.39
2023-01-13T09:22:21.995Z,99103.04
2023-01-13T09:25:14.978Z,99106.02
2023-01-13T09:27:51.240Z,99102.71
2023-01-13T09:30:37.673Z,99099.06
2023-01-13T09:33:38.950Z,99099.31
2023-01-13T09:36:31.748Z,99092.25
2023-01-13T09:39:26.304Z,99087.97
2023-01-13T09:42:44.068Z,99083.88
2023-01-13T09:45:35.030Z,99084.11
2023-01-13T09:48:31.571Z,99086.58
2023-01-13T09:51:33.220Z,99082.39
2023-01-13T09:54:32.967Z,99080.30
2023-01-13T09:57:26.275Z,99074.89
2023-01-13T10:00:25.292Z,99073.13
2023-01-13T10:03:27.711Z,99072.42
2023-01-13T10:06:22.543Z,99068.57
2023-01-13T10:09:16.024Z,99071.20
2023-01-13T10:12:31.835Z,99062.98
2023-01-13T10:15:23.218Z,99065.80
2023-01-13T10:18:20.543Z,99062.66
2023-01-13T10:21:28.949Z,99056.54
2023-01-13T10:24:30.838Z,99057.91
2023-01-13T10:27:26.393Z,99057.91
2023-01-13T10:30:19.935Z,99058.61
2023-01-13T10:33:18.884Z,99058.26
2023-01-13T10:36:21.577Z,99055.47
2023-01-13T10:38:57.942Z,99056.88
2023-01-13T10:41:51.219Z,99056.88
2023-01-13T10:44:53.065Z,99052.52
2023-01-13T10:48:04.661Z,99047.11
2023-01-13T10:50:58.149Z,99053.20
2023-01-13T10:53:55.472Z,99038.34
2023-01-13T10:56:40.535Z,99042.52
2023-01-13T10:59:35.082Z,99038.84
2023-01-13T11:02:33.092Z,99038.84
2023-01-13T11:05:28.482Z,99035.88
2023-01-13T11:08:23.884Z,99034.48
2023-01-13T11:11:03.206Z,99022.97
2023-01-13T11:14:16.871Z,99021.74
2023-01-13T11:16:56.443Z,99017.91
2023-01-13T11:19:45.096Z,99017.02
2023-01-13T11:22:46.093Z,99022.92
2023-01-13T11:25:46.546Z,99023.97
2023-01-13T11:28:48.588Z,99018.01
2023-01-13T11:31:47.697Z,99012.80
2023-01-13T11:34:43.416Z,99005.84
2023-01-13T11:37:43.066Z,99001.47
2023-01-13T11:40:33.823Z,98992.58
2023-01-13T11:43:28.049Z,98991.55
2023-01-13T11:46:22.405Z,98995.37
2023-01-13T11:49:22.404Z,98993.45
2023-01-13T11:52:20.792Z,98996.07
2023-01-13T11:55:30.953Z,98992.91
2023-01-13T11:58:29.089Z,98990.27
2023-01-13T12:01:56.764Z,98989.19
2023-01-13T12:05:06.921Z,98987.98
2023-01-13T12:07:56.989Z,98990.77
2023-01-13T12:11:02.725Z,98989.19
2023-01-13T12:14:01.211Z,98984.31
2023-01-13T12:16:43.702Z,98978.18
2023-01-13T12:19:32.836Z,98977.13
2023-01-13T12:22:29.823Z,98975.54
2023-01-13T12:25:33.728Z,98980.56
2023-01-13T12:28:26.955Z,98973.77
2023-01-13T12:31:15.350Z,98974.11
2023-01-13T12:34:07.645Z,98971.50
2023-01-13T12:37:02.846Z,98972.20
2023-01-13T12:40:12.808Z,98968.50
2023-01-13T12:43:26.013Z,98967.61
2023-01-13T12:46:36.796Z,98966.89
2023-01-13T12:49:29.443Z,98968.13
2023-01-13T12:52:22.990Z,98963.42
2023-01-13T12:55:10.328Z,98964.66
2023-01-13T12:58:19.416Z,98968.70
2023-01-13T13:01:16.914Z,98966.43
2023-01-13T13:04:12.947Z,98961.69
2023-01-13T13:07:12.037Z,98967.09
2023-01-13T13:10:21.835Z,98963.59
2023-01-13T13:13:43.900Z,98967.90
2023-01-13T13:17:52.519Z,98972.60
2023-01-13T13:20:03.423Z,98971.39
2023-01-13T13:22:56.525Z,98973.66
2023-01-13T13:26:07.340Z,98974.17
2023-01-13T13:29:21.953Z,98973.30
2023-01-13T13:32:12.016Z,98972.95
2023-01-13T13:34:54.188Z,98971.20
2023-01-13T13:38:05.786Z,98975.34
2023-01-13T13:41:03.605Z,98978.27
2023-01-13T13:44:01.821Z,98981.73
2023-01-13T13:46:49.224Z,98981.23
2023-01-13T13:49:41.447Z,98973.06
2023-01-13T13:52:22.952Z,98971.36
2023-01-13T13:55:21.921Z,98967.73
2023-01-13T13:58:17.747Z,98977.83
2023-01-13T14:01:26.026Z,98980.74
2023-01-13T14:04:16.981Z,98980.02
2023-01-13T14:07:32.858Z,98979.27
2023-01-13T14:10:24.913Z,98981.27
2023-01-13T14:13:21.141Z,98975.70
2023-01-13T14:16:17.329Z,98975.02
2023-01-13T14:18:59.532Z,98972.44
2023-01-13T14:21:52.574Z,98968.27
2023-01-13T14:25:00.750Z,98971.21
2023-01-13T14:27:54.560Z,98976.21
2023-01-13T14:30:47.910Z,98975.79
2023-01-13T14:33:44.386Z,98976.75
2023-01-13T14:36:40.979Z,98973.56
2023-01-13T14:39:43.011Z,98977.89
2023-01-13T14:42:35.721Z,98979.45
2023-01-13T14:45:33.242Z,98975.63
2023-01-13T14:48:35.577Z,98973.70
2023-01-13T14:51:30.811Z,98974.87
2023-01-13T14:54:44.725Z,98979.37
2023-01-13T14:57:39.640Z,98978.44
2023-01-13T15:00:33.649Z,98978.91
2023-01-13T15:03:20.555Z,98980.92
2023-01-13T15:06:27.393Z,98976.73
2023-01-13T15:09:27.286Z,98975.34
2023-01-13T15:12:33.625Z,98972.38
2023-01-13T15:15:30.271Z,98970.13
2023-01-13T15:18:23.271Z,98975.33
2023-01-13T15:21:17.317Z,98976.71
2023-01-13T15:24:10.700Z,98978.58
2023-01-13T15:27:05.604Z,98979.56
2023-01-13T15:29:51.687Z,98974.67
2023-01-13T15:32:44.033Z,98976.95
2023-01-13T15:35:38.560Z,98974.03
2023-01-13T15:38:31.670Z,98979.48
2023-01-13T15:41:38.713Z,98982.32
2023-01-13T15:44:49.067Z,98981.70
2023-01-13T15:47:41.885Z,98981.02
2023-01-13T15:50:38.393Z,98978.74
2023-01-13T15:53:31.531Z,98978.91
2023-01-13T15:56:27.493Z,98980.45
2023-01-13T15:59:23.290Z,98978.36
2023-01-13T16:02:18.443Z,98975.77
2023-01-13T16:05:11.927Z,98979.98
2023-01-13T16:08:03.304Z,98982.99
2023-01-13T16:10:56.563Z,98982.17
2023-01-13T16:13:43.401Z,98988.48
2023-01-13T16:16:31.013Z,98989.19
2023-01-13T16:19:16.837Z,98988.67
2023-01-13T16:22:01.899Z,98988.16
2023-01-13T16:24:55.103Z,98996.13
2023-01-13T16:27:48.385Z,98997.67
2023-01-13T16:30:41.506Z,98995.77
2023-01-13T16:33:34.824Z,98993.89
2023-01-13T16:36:22.004Z,98994.08
2023-01-13T16:39:23.542Z,98990.80
2023-01-13T16:42:07.752Z,98992.73
2023-01-13T16:45:08.271Z,98992.24
2023-01-13T16:48:00.242Z,98992.04
2023-01-13T16:50:53.521Z,98993.23
2023-01-13T16:53:39.809Z,98998.25
2023-01-13T16:56:31.904Z,99002.56
2023-01-13T16:59:23.387Z,98998.71
2023-01-13T17:02:20.245Z,99006.05
2023-01-13T17:05:07.026Z,99011.65
2023-01-13T17:08:01.674Z,99011.31
2023-01-13T17:10:48.446Z,99016.20
2023-01-13T17:13:41.690Z,99013.40
2023-01-13T17:16:22.923Z,99013.73
2023-01-13T17:19:08.617Z,99011.26
2023-01-13T17:22:04.835Z,99012.77
2023-01-13T17:24:57.845Z,99013.13
2023-01-13T17:27:50.985Z,99013.14
2023-01-13T17:30:24.270Z,99010.01
2023-01-13T17:33:17.343Z,99017.18
2023-01-13T17:36:12.396Z,99016.32
2023-01-13T17:39:05.422Z,99018.20
2023-01-13T17:41:58.374Z,99013.66
2023-01-13T17:44:51.634Z,99015.90
2023-01-13T17:47:35.349Z,99009.45
2023-01-13T17:50:20.081Z,99007.05
2023-01-13T17:53:12.887Z,99012.48
2023-01-13T17:55:55.025Z,99010.63
2023-01-13T17:58:48.439Z,99007.89
2023-01-13T18:01:40.824Z,99004.66
2023-01-13T18:04:33.855Z,99005.89
2023-01-13T18:07:27.032Z,99009.89
2023-01-13T18:10:20.586Z,99008.98
2023-01-13T18:13:13.836Z,99008.96
2023-01-13T18:16:08.545Z,99006.70
2023-01-13T18:19:18.966Z,99003.73
2023-01-13T18:22:32.041Z,99002.05
2023-01-13T18:25:41.253Z,99000.67
2023-01-13T18:28:34.190Z,98999.68
2023-01-13T18:31:27.449Z,99001.95
2023-01-13T18:34:12.987Z,99005.55
2023-01-13T18:36:58.471Z,99011.26
2023-01-13T18:39:51.647Z,99014.86
2023-01-13T18:42:54.521Z,99013.23
2023-01-13T18:45:52.917Z,99022.42
2023-01-13T18:48:45.673Z,99025.16
2023-01-13T18:51:32.303Z,99029.68
2023-01-13T18:54:25.568Z,99029.36
2023-01-13T18:57:13.716Z,99027.83
2023-01-13T18:59:58.195Z,99026.12
2023-01-13T19:05:41.686Z,99031.87
2023-01-13T19:08:34.994Z,99028.89
2023-01-13T19:11:13.600Z,99035.13
2023-01-13T19:13:58.761Z,99033.67
2023-01-13T19:16:42.712Z,99033.13
2023-01-13T19:19:18.334Z,99039.74
2023-01-13T19:22:12.243Z,99041.49
2023-01-13T19:25:06.080Z,99042.91
2023-01-13T19:27:51.515Z,99041.21
2023-01-13T19:30:45.029Z,99041.58
2023-01-13T19:33:33.590Z,99048.20
2023-01-13T19:36:27.043Z,99045.53
2023-01-13T19:39:20.145Z,99040.78
2023-01-13T19:42:32.967Z,99048.23
2023-01-13T19:45:32.877Z,99046.33
2023-01-13T19:48:26.316Z,99049.11
2023-01-13T19:51:22.954Z,99051.94
2023-01-13T19:54:19.856Z,99056.31
2023-01-13T19:57:05.364Z,99055.43
2023-01-13T19:59:58.849Z,99051.95
2023-01-13T20:02:53.332Z,99052.96
2023-01-13T20:05:46.373Z,99054.30
2023-01-13T20:08:39.375Z,99052.00
2023-01-13T20:11:33.279Z,99058.08
2023-01-13T20:14:26.415Z,99060.69
2023-01-13T20:17:22.160Z,99059.13
2023-01-13T20:20:09.097Z,99060.02
2023-01-13T20:22:42.225Z,99064.39
2023-01-13T20:25:29.013Z,99063.51
2023-01-13T20:28:22.160Z,99065.05
2023-01-13T20:31:16.336Z,99063.27
2023-01-13T20:34:10.117Z,99063.09
2023-01-13T20:37:03.105Z,99063.59
2023-01-13T20:39:58.172Z,99067.59
2023-01-13T20:42:53.212Z,99065.86
2023-01-13T20:45:46.133Z,99061.52
2023-01-13T20:48:39.509Z,99061.19
2023-01-13T20:51:32.359Z,99057.20
2023-01-13T20:54:26.177Z,99060.48
2023-01-13T20:57:19.515Z,99067.77
2023-01-13T21:00:13.882Z,99064.23
2023-01-13T21:03:05.427Z,99069.67
2023-01-13T21:05:59.958Z,99064.46
2023-01-13T21:09:14.081Z,99069.90
2023-01-13T21:12:25.552Z,99070.49
2023-01-13T21:15:18.437Z,99072.79
2023-01-13T21:18:10.083Z,99070.89
2023-01-13T21:21:13.207Z,99075.91
2023-01-13T21:24:06.442Z,99077.64
2023-01-13T21:26:59.643Z,99078.83
2023-01-13T21:29:52.461Z,99080.42
2023-01-13T21:32:38.996Z,99083.92
2023-01-13T21:35:31.888Z,99096.14
2023-01-13T21:38:27.289Z,99089.77
2023-01-13T21:41:40.555Z,99097.61
2023-01-13T21:44:53.507Z,99104.01
2023-01-13T21:47:52.255Z,99117.03
2023-01-13T21:50:45.447Z,99117.86
2023-01-13T21:53:30.924Z,99126.90
2023-01-13T21:56:24.069Z,99130.03
2023-01-13T21:59:17.272Z,99129.69
2023-01-13T22:02:30.104Z,99131.94
2023-01-13T22:05:24.803Z,99141.01
2023-01-13T22:08:18.870Z,99145.89
2023-01-13T22:11:14.356Z,99147.79
2023-01-13T22:14:09.413Z,99153.66
2023-01-13T22:17:03.972Z,99151.13
2023-01-13T22:19:59.321Z,99154.20
2023-01-13T22:22:52.485Z,99155.38
2023-01-13T22:25:47.309Z,99161.11
2023-01-13T22:28:44.318Z,99162.16
2023-01-13T22:31:39.296Z,99162.70
2023-01-13T22:34:32.147Z,99163.59
2023-01-13T22:37:18.713Z,99167.45
2023-01-13T22:40:12.822Z,99170.74
2023-01-13T22:43:06.164Z,99174.51
2023-01-13T22:46:14.255Z,99179.34
2023-01-13T22:49:07.068Z,99179.30
2023-01-13T22:51:59.750Z,99180.34
2023-01-13T22:54:52.521Z,99187.48
2023-01-13T22:57:48.069Z,99186.83
2023-01-13T23:00:41.937Z,99184.77
2023-01-13T23:03:34.843Z,99190.73
2023-01-13T23:06:29.238Z,99192.69
2023-01-13T23:09:22.020Z,99195.65
2023-01-13T23:12:15.005Z,99197.73
2023-01-13T23:15:09.203Z,99200.77
2023-01-13T23:17:55.114Z,99199.66
2023-01-13T23:20:48.628Z,99198.34
2023-01-13T23:23:41.794Z,99204.55
2023-01-13T23:26:35.780Z,99207.31
2023-01-13T23:29:28.759Z,99206.80
2023-01-13T23:32:22.682Z,99208.23
2023-01-13T23:35:15.761Z,99207.42
2023-01-13T23:38:08.736Z,99212.50
2023-01-13T23:41:02.165Z,99213.73
2023-01-13T23:43:56.265Z,99216.85
2023-01-13T23:46:49.085Z,99215.56
2023-01-13T23:49:42.208Z,99217.27
2023-01-13T23:52:36.069Z,99218.97
2023-01-13T23:56:16.564Z,99217.06
2023-01-13T23:58:44.677Z,99221.23
